Time;durP1;ratioP1;P1;durP2;ratioP2;P2;SDS_P1;SDS_P2;PMS_P1;PMS_P2;Temp;Humidity;BMP_temperature;BMP_pressure;BME280_temperature;BME280_humidity;BME280_pressure;Samples;Min_cycle;Max_cycle;Signal;HPM_P1;HPM_P2
2022/10/26 00:00:09;;;;;;;13.07;7.03;;;10.40;99.90;;;;;;4956443;28;20129;-94
2022/10/26 00:02:38;;;;;;;9.32;7.38;;;9.20;99.90;;;;;;4946693;28;20053;-92
2022/10/26 00:05:07;;;;;;;10.45;7.18;;;9.30;99.90;;;;;;4949363;28;20035;-93
2022/10/26 00:07:36;;;;;;;12.75;6.90;;;10.30;99.90;;;;;;4951784;28;20168;-93
2022/10/26 00:10:10;;;;;;;8.98;6.88;;;10.30;99.90;;;;;;4948284;28;20098;-94
2022/10/26 00:12:38;;;;;;;10.70;6.55;;;10.10;99.90;;;;;;4938894;28;20039;-94
2022/10/26 00:15:16;;;;;;;9.32;6.97;;;10.40;99.90;;;;;;4949713;28;20039;-95
2022/10/26 00:17:45;;;;;;;11.13;7.60;;;10.20;99.90;;;;;;4947592;28;20566;-96
2022/10/26 00:20:12;;;;;;;10.65;6.60;;;10.30;99.90;;;;;;4934759;28;20046;-95
2022/10/26 00:22:38;;;;;;;11.73;6.82;;;10.30;99.90;;;;;;4936784;28;20126;-93
2022/10/26 00:25:05;;;;;;;11.05;6.72;;;10.30;99.90;;;;;;4934547;28;20049;-93
2022/10/26 00:27:34;;;;;;;10.15;6.57;;;10.10;99.90;;;;;;4949922;28;20488;-92
2022/10/26 00:30:04;;;;;;;8.98;6.95;;;10.20;99.90;;;;;;4953298;28;20077;-94
2022/10/26 00:32:33;;;;;;;10.70;7.30;;;10.30;99.90;;;;;;4946076;28;20061;-91
2022/10/26 00:35:08;;;;;;;10.70;6.10;;;10.10;99.90;;;;;;4965797;28;20035;-92
2022/10/26 00:37:37;;;;;;;9.35;6.00;;;10.20;99.90;;;;;;4947565;28;20110;-92
2022/10/26 00:40:15;;;;;;;9.52;6.47;;;10.10;99.90;;;;;;4954526;28;20065;-94
2022/10/26 00:42:43;;;;;;;8.13;6.25;;;10.00;99.90;;;;;;4947222;28;20051;-93
2022/10/26 00:45:18;;;;;;;9.55;6.57;;;9.90;99.90;;;;;;4949872;28;20047;-95
2022/10/26 00:48:01;;;;;;;9.52;6.10;;;9.90;99.90;;;;;;4952605;28;20065;-95
2022/10/26 00:50:35;;;;;;;8.43;6.18;;;9.20;99.90;;;;;;4940855;28;20226;-93
2022/10/26 00:53:05;;;;;;;8.02;6.07;;;9.80;99.90;;;;;;4957006;28;20054;-93
2022/10/26 00:55:39;;;;;;;10.07;5.57;;;9.80;99.90;;;;;;4956309;28;20254;-93
2022/10/26 00:58:08;;;;;;;9.23;5.93;;;9.80;99.90;;;;;;4963701;28;20062;-94
2022/10/26 01:00:35;;;;;;;11.25;6.53;;;9.70;99.90;;;;;;4939151;28;20154;-92
2022/10/26 01:03:14;;;;;;;11.02;6.07;;;9.70;99.90;;;;;;4945567;28;20043;-93
2022/10/26 01:05:44;;;;;;;10.65;6.18;;;9.60;99.90;;;;;;4946942;28;20374;-92
2022/10/26 01:08:17;;;;;;;10.25;6.55;;;9.60;99.90;;;;;;4952033;28;20134;-94
2022/10/26 01:10:43;;;;;;;9.73;6.25;;;9.60;99.90;;;;;;4945802;28;20200;-93
2022/10/26 01:13:14;;;;;;;11.63;5.95;;;9.70;99.90;;;;;;4939188;28;20456;-95
2022/10/26 01:15:46;;;;;;;8.68;6.45;;;9.50;99.90;;;;;;4951646;28;20098;-94
2022/10/26 01:18:32;;;;;;;8.90;5.95;;;9.50;99.90;;;;;;4953988;28;20543;-94
2022/10/26 01:21:40;;;;;;;9.27;6.25;;;9.30;99.90;;;;;;4938563;28;20061;-95
2022/10/26 01:24:19;;;;;;;8.27;5.82;;;9.30;99.90;;;;;;4904407;28;20047;-95
2022/10/26 01:26:53;;;;;;;6.68;5.50;;;9.40;99.90;;;;;;4944505;28;20496;-93
2022/10/26 01:29:55;;;;;;;8.50;5.50;;;9.30;99.90;;;;;;4949511;28;20085;-93
2022/10/26 01:32:46;;;;;;;9.20;6.68;;;7.90;99.90;;;;;;4953102;28;20051;-93
2022/10/26 01:35:50;;;;;;;9.73;6.05;;;9.20;99.90;;;;;;4953587;28;20124;-92
2022/10/26 01:38:42;;;;;;;10.85;6.40;;;9.20;99.90;;;;;;4892218;29;20126;-95
2022/10/26 01:41:32;;;;;;;10.88;5.93;;;9.30;99.90;;;;;;4933182;28;20058;-92
2022/10/26 01:44:33;;;;;;;10.38;6.40;;;8.20;99.90;;;;;;4945056;28;20039;-93
2022/10/26 01:47:05;;;;;;;10.68;6.07;;;9.30;99.90;;;;;;4933756;28;20624;-94
2022/10/26 01:49:38;;;;;;;13.32;6.38;;;9.20;99.90;;;;;;4951540;28;20085;-92
2022/10/26 01:52:04;;;;;;;8.20;6.38;;;9.30;99.90;;;;;;4953034;28;20053;-95
2022/10/26 01:54:33;;;;;;;9.75;6.50;;;9.10;99.90;;;;;;4949566;28;20137;-94
2022/10/26 01:57:03;;;;;;;8.65;6.80;;;9.20;99.90;;;;;;4954660;28;20409;-94
2022/10/26 02:00:00;;;;;;;10.55;6.95;;;9.20;99.90;;;;;;4935308;28;20054;-93
2022/10/26 02:02:37;;;;;;;11.23;6.20;;;8.80;99.90;;;;;;4940653;28;20047;-96
2022/10/26 02:05:35;;;;;;;13.13;6.85;;;8.00;99.90;;;;;;4938720;28;20098;-92
2022/10/26 02:08:36;;;;;;;9.98;6.40;;;9.20;99.90;;;;;;4952532;28;20047;-93
2022/10/26 02:11:08;;;;;;;10.63;6.90;;;9.40;99.90;;;;;;4942514;28;20066;-94
2022/10/26 02:14:12;;;;;;;10.43;7.07;;;9.20;99.90;;;;;;4961427;28;20042;-91
2022/10/26 02:16:57;;;;;;;9.73;6.97;;;9.20;99.90;;;;;;4953979;28;20058;-91
2022/10/26 02:19:55;;;;;;;10.05;6.93;;;9.30;99.90;;;;;;4947963;28;20043;-93
2022/10/26 02:22:28;;;;;;;9.43;7.20;;;9.30;99.90;;;;;;4938637;28;20051;-93
2022/10/26 02:24:58;;;;;;;9.38;7.22;;;9.30;99.90;;;;;;4953569;28;20130;-93
2022/10/26 02:27:36;;;;;;;13.77;8.15;;;9.20;99.90;;;;;;4963847;28;20050;-94
2022/10/26 02:30:05;;;;;;;13.68;7.78;;;9.20;99.90;;;;;;4947907;28;20121;-92
2022/10/26 02:32:36;;;;;;;13.02;7.40;;;9.40;99.90;;;;;;4941308;28;20066;-93
2022/10/26 02:35:10;;;;;;;12.40;8.30;;;9.50;99.90;;;;;;4947104;28;20051;-94
2022/10/26 02:37:49;;;;;;;13.80;8.00;;;9.30;99.90;;;;;;4951835;28;20095;-94
2022/10/26 02:40:25;;;;;;;11.55;7.95;;;9.30;99.90;;;;;;4933660;28;20046;-94
2022/10/26 02:42:57;;;;;;;13.00;8.07;;;10.40;99.90;;;;;;4930535;28;20467;-93
2022/10/26 02:45:30;;;;;;;16.08;8.60;;;9.40;99.90;;;;;;4931526;28;20105;-92
2022/10/26 02:47:56;;;;;;;13.68;8.07;;;9.40;99.90;;;;;;4941382;28;20212;-93
2022/10/26 02:50:28;;;;;;;10.73;7.72;;;9.50;99.90;;;;;;4930533;28;20135;-93
2022/10/26 02:53:00;;;;;;;11.40;8.32;;;9.40;99.90;;;;;;4924289;28;20042;-94
2022/10/26 02:55:31;;;;;;;11.13;7.45;;;10.10;99.90;;;;;;4928798;28;20050;-94
2022/10/26 02:58:09;;;;;;;12.38;8.27;;;9.00;99.90;;;;;;4931646;28;20517;-94
2022/10/26 03:00:46;;;;;;;11.00;7.15;;;9.40;99.90;;;;;;4935762;28;20129;-94
2022/10/26 03:03:17;;;;;;;;;;;9.40;99.90;;;;;;4934987;28;20051;-95
2022/10/26 03:05:46;;;;;;;9.60;6.65;;;9.30;99.90;;;;;;4934196;28;20004;-92
2022/10/26 03:08:12;;;;;;;11.32;8.25;;;9.50;99.90;;;;;;4934751;28;20070;-94
2022/10/26 03:10:50;;;;;;;12.85;7.55;;;9.30;99.90;;;;;;4939826;28;20042;-93
2022/10/26 03:13:19;;;;;;;10.98;7.32;;;8.20;99.90;;;;;;4920349;28;20061;-94
2022/10/26 03:15:45;;;;;;;11.15;6.70;;;9.20;99.90;;;;;;4935685;28;20046;-93
2022/10/26 03:18:11;;;;;;;12.35;7.15;;;9.30;99.90;;;;;;4946417;28;20046;-94
2022/10/26 03:20:42;;;;;;;11.45;7.68;;;9.30;99.90;;;;;;4947421;28;20062;-94
2022/10/26 03:23:16;;;;;;;13.90;8.23;;;9.40;99.90;;;;;;4933135;28;20042;-95
2022/10/26 03:25:44;;;;;;;13.07;7.93;;;9.40;99.90;;;;;;4954701;28;20051;-92
2022/10/26 03:28:13;;;;;;;12.15;8.15;;;9.30;99.90;;;;;;4927214;28;20050;-95
2022/10/26 03:30:44;;;;;;;12.43;7.80;;;8.20;99.90;;;;;;4952368;28;20042;-94
2022/10/26 03:33:10;;;;;;;14.15;8.27;;;9.40;99.90;;;;;;4955136;28;20063;-93
2022/10/26 03:35:38;;;;;;;13.68;8.60;;;9.50;99.90;;;;;;4936634;28;20078;-94
2022/10/26 03:38:06;;;;;;;13.88;8.63;;;9.50;99.90;;;;;;4943898;28;20043;-91
2022/10/26 03:40:35;;;;;;;13.63;8.88;;;9.40;99.90;;;;;;4939091;28;20309;-91
2022/10/26 03:43:12;;;;;;;;;;;;;;;;;;;;;
2022/10/26 03:45:40;;;;;;;12.82;8.45;;;9.40;99.90;;;;;;4946351;28;20519;-94
2022/10/26 03:48:06;;;;;;;13.98;8.80;;;9.70;99.90;;;;;;4927994;28;20117;-93
2022/10/26 03:50:35;;;;;;;14.15;9.45;;;9.50;99.90;;;;;;4944859;28;20463;-91
2022/10/26 03:53:01;;;;;;;16.83;10.60;;;9.80;99.90;;;;;;4917803;28;20047;-91
2022/10/26 03:55:27;;;;;;;15.98;9.60;;;9.60;99.90;;;;;;4937802;28;20046;-94
2022/10/26 03:58:10;;;;;;;15.48;8.90;;;9.80;99.90;;;;;;4934858;28;20055;-93
2022/10/26 04:00:36;;;;;;;13.50;8.73;;;9.60;99.90;;;;;;4914232;28;20587;-93
2022/10/26 04:03:02;;;;;;;17.02;10.30;;;9.70;99.90;;;;;;4931581;28;20042;-93
2022/10/26 04:05:31;;;;;;;16.23;9.50;;;9.90;99.90;;;;;;4930031;28;20504;-94
2022/10/26 04:08:02;;;;;;;17.88;10.75;;;9.70;99.90;;;;;;4930061;28;20263;-94
2022/10/26 04:10:31;;;;;;;14.10;10.35;;;10.00;99.90;;;;;;4935973;28;20078;-94
2022/10/26 04:13:00;;;;;;;14.18;10.48;;;9.80;99.90;;;;;;4934566;28;20134;-90
2022/10/26 04:15:27;;;;;;;14.90;10.77;;;10.00;99.90;;;;;;4936676;28;20047;-92
2022/10/26 04:17:59;;;;;;;18.40;11.73;;;9.90;99.90;;;;;;4962487;28;20035;-90
2022/10/26 04:20:26;;;;;;;14.60;11.00;;;9.50;99.90;;;;;;4932817;28;20050;-93
2022/10/26 04:23:04;;;;;;;14.38;10.80;;;10.00;99.90;;;;;;4935037;28;20488;-93
2022/10/26 04:25:33;;;;;;;14.95;10.80;;;10.00;99.90;;;;;;4955400;28;20050;-94
2022/10/26 04:28:01;;;;;;;18.88;10.77;;;10.00;99.90;;;;;;4936773;28;20501;-94
2022/10/26 04:30:32;;;;;;;15.05;10.32;;;10.20;99.90;;;;;;4937456;28;20157;-94
2022/10/26 04:33:01;;;;;;;15.55;10.30;;;9.80;99.90;;;;;;4936138;28;20063;-94
2022/10/26 04:35:35;;;;;;;15.52;11.02;;;9.40;99.90;;;;;;4929332;28;20047;-94
2022/10/26 04:38:06;;;;;;;16.85;10.95;;;10.10;99.90;;;;;;4973050;28;20043;-95
2022/10/26 04:40:33;;;;;;;16.52;10.48;;;10.10;99.90;;;;;;4957502;28;20062;-92
2022/10/26 04:43:05;;;;;;;17.80;11.23;;;10.30;99.90;;;;;;4952808;28;20043;-94
2022/10/26 04:45:33;;;;;;;14.63;9.30;;;9.10;99.90;;;;;;4952590;28;20063;-92
2022/10/26 04:48:09;;;;;;;15.20;10.98;;;9.20;99.90;;;;;;4949508;28;20115;-94
2022/10/26 04:50:39;;;;;;;16.27;10.10;;;10.20;99.90;;;;;;4953647;28;20063;-92
2022/10/26 04:53:09;;;;;;;15.68;10.55;;;10.20;99.90;;;;;;4969039;28;20058;-90
2022/10/26 04:55:35;;;;;;;13.10;10.52;;;10.20;99.90;;;;;;4950001;28;20045;-94
2022/10/26 04:58:01;;;;;;;12.65;9.90;;;9.50;99.90;;;;;;4960259;28;20043;-93
2022/10/26 05:00:31;;;;;;;14.52;9.23;;;9.20;99.90;;;;;;4939772;28;20121;-92
2022/10/26 05:03:05;;;;;;;14.10;9.90;;;10.20;99.90;;;;;;4952568;28;20046;-93
2022/10/26 05:05:34;;;;;;;14.20;10.27;;;10.50;99.90;;;;;;4949157;28;20043;-93
2022/10/26 05:08:00;;;;;;;16.67;10.18;;;11.90;99.90;;;;;;4932033;28;20055;-94
2022/10/26 05:10:29;;;;;;;14.32;9.30;;;10.30;99.90;;;;;;4950467;28;20552;-93
2022/10/26 05:13:03;;;;;;;12.07;9.57;;;10.40;99.90;;;;;;4936457;28;20054;-94
2022/10/26 05:15:32;;;;;;;12.82;8.90;;;10.60;99.90;;;;;;4962180;28;20044;-88
2022/10/26 05:18:03;;;;;;;13.52;9.57;;;10.50;99.90;;;;;;4942161;28;20051;-91
2022/10/26 05:20:31;;;;;;;13.30;9.43;;;10.50;99.90;;;;;;4934674;28;20078;-92
2022/10/26 05:23:00;;;;;;;12.60;9.18;;;10.50;99.90;;;;;;4954772;28;20100;-93
2022/10/26 05:25:30;;;;;;;12.77;8.43;;;10.60;99.90;;;;;;4956269;28;20151;-94
2022/10/26 05:28:10;;;;;;;16.48;9.15;;;10.60;99.90;;;;;;4938117;28;20054;-94
2022/10/26 05:30:40;;;;;;;14.18;9.13;;;10.40;99.90;;;;;;4952420;28;20133;-94
2022/10/26 05:33:13;;;;;;;16.38;9.95;;;10.40;99.90;;;;;;4947990;28;20066;-95
2022/10/26 05:35:39;;;;;;;14.43;9.98;;;9.40;99.90;;;;;;4939416;29;20047;-94
2022/10/26 05:38:16;;;;;;;17.17;9.52;;;10.50;99.90;;;;;;4940117;28;20043;-95
2022/10/26 05:41:00;;;;;;;16.38;9.63;;;10.50;99.90;;;;;;4920320;29;20055;-91
2022/10/26 05:43:26;;;;;;;15.48;10.32;;;10.40;99.90;;;;;;4940667;28;20067;-93
2022/10/26 05:45:56;;;;;;;13.25;9.32;;;10.50;99.90;;;;;;4949732;28;20114;-88
2022/10/26 05:48:22;;;;;;;18.63;10.77;;;10.50;99.90;;;;;;4937382;28;20055;-86
2022/10/26 05:50:47;;;;;;;14.20;11.75;;;10.40;99.90;;;;;;4927755;28;20043;-89
2022/10/26 05:53:16;;;;;;;13.02;9.63;;;10.50;99.90;;;;;;4925289;29;20115;-93
2022/10/26 06:06:01;;;;;;;16.70;10.15;;;10.40;99.90;;;;;;4984638;28;20062;-91
2022/10/26 06:08:35;;;;;;;15.10;10.70;;;10.40;99.90;;;;;;4954840;28;20058;-90
2022/10/26 06:11:14;;;;;;;;;;;;;;;;;;;;;
2022/10/26 06:13:59;;;;;;;16.63;11.43;;;10.50;99.90;;;;;;4981227;28;20074;-93
2022/10/26 06:16:43;;;;;;;17.25;11.18;;;10.60;99.90;;;;;;4971210;28;20054;-94
2022/10/26 06:19:42;;;;;;;15.13;9.48;;;11.80;99.90;;;;;;4970244;28;20077;-92
2022/10/26 06:22:40;;;;;;;13.90;9.60;;;10.30;99.90;;;;;;4981784;28;20054;-92
2022/10/26 06:25:12;;;;;;;15.45;10.02;;;10.50;99.90;;;;;;4969670;28;20509;-93
2022/10/26 06:28:03;;;;;;;14.18;9.38;;;11.10;99.90;;;;;;4980794;28;20047;-95
2022/10/26 06:30:34;;;;;;;14.52;10.23;;;10.40;99.90;;;;;;4987476;28;21391;-91
2022/10/26 06:33:03;;;;;;;18.83;11.32;;;10.40;99.90;;;;;;4977483;28;20055;-93
2022/10/26 06:36:08;;;;;;;16.85;10.40;;;10.40;99.90;;;;;;4978787;28;20050;-93
2022/10/26 06:38:42;;;;;;;14.70;9.77;;;10.50;99.90;;;;;;4956180;28;20137;-93
2022/10/26 06:41:18;;;;;;;11.45;9.15;;;10.60;99.90;;;;;;4973013;28;20050;-93
2022/10/26 06:43:52;;;;;;;16.45;10.77;;;10.60;99.90;;;;;;4971764;28;20050;-94
2022/10/26 06:46:46;;;;;;;15.13;10.05;;;9.60;99.90;;;;;;4975882;28;20127;-91
2022/10/26 06:49:24;;;;;;;;;;;10.60;99.90;;;;;;4988360;28;20050;-92
2022/10/26 06:51:59;;;;;;;16.10;9.25;;;10.70;99.90;;;;;;4985509;28;19928;-92
2022/10/26 06:55:05;;;;;;;17.15;10.15;;;10.80;99.90;;;;;;4995429;28;20061;-91
2022/10/26 06:57:36;;;;;;;13.18;9.80;;;11.00;99.90;;;;;;4989767;28;20092;-92
2022/10/26 07:00:07;;;;;;;13.30;9.60;;;10.70;99.90;;;;;;5007307;28;20043;-92
2022/10/26 07:02:33;;;;;;;14.85;9.45;;;10.00;99.90;;;;;;4983131;28;20362;-92
2022/10/26 07:05:05;;;;;;;14.75;10.15;;;10.20;99.90;;;;;;4976465;28;20053;-91
2022/10/26 07:07:31;;;;;;;15.95;9.32;;;10.90;99.90;;;;;;4979158;28;20042;-92
2022/10/26 07:10:00;;;;;;;15.35;10.55;;;11.00;99.90;;;;;;4987485;28;20056;-92
2022/10/26 07:12:35;;;;;;;11.73;8.57;;;10.90;99.90;;;;;;5005898;28;20054;-91
2022/10/26 07:15:04;;;;;;;16.67;9.67;;;11.60;99.90;;;;;;4988816;28;20051;-91
2022/10/26 07:17:50;;;;;;;13.60;9.55;;;11.10;99.90;;;;;;4988074;28;20054;-92
2022/10/26 07:20:18;;;;;;;15.05;9.98;;;11.10;99.90;;;;;;4982633;28;20045;-92
2022/10/26 07:22:46;;;;;;;15.80;10.75;;;11.20;99.90;;;;;;4985028;28;20054;-91
2022/10/26 07:25:41;;;;;;;14.88;10.35;;;11.20;99.90;;;;;;4988146;28;20135;-94
2022/10/26 07:28:14;;;;;;;17.23;10.32;;;11.00;99.90;;;;;;4973277;28;20070;-92
2022/10/26 07:30:49;;;;;;;13.20;9.57;;;11.10;99.90;;;;;;4987861;28;20046;-93
2022/10/26 07:33:20;;;;;;;14.27;9.48;;;11.30;99.90;;;;;;4985189;28;20054;-93
2022/10/26 07:35:54;;;;;;;13.32;9.52;;;11.20;99.90;;;;;;4986529;28;20069;-94
2022/10/26 07:38:22;;;;;;;11.25;9.10;;;11.30;99.90;;;;;;4985569;28;20105;-92
2022/10/26 07:40:49;;;;;;;12.48;8.57;;;11.50;99.90;;;;;;4972010;28;20085;-93
2022/10/26 07:43:20;;;;;;;12.88;9.82;;;12.80;99.90;;;;;;4967780;28;20504;-94
2022/10/26 07:45:53;;;;;;;11.82;8.70;;;11.30;99.90;;;;;;4954764;28;20626;-94
2022/10/26 07:48:22;;;;;;;13.13;8.23;;;11.40;99.90;;;;;;4967195;28;20050;-93
2022/10/26 07:50:48;;;;;;;14.65;9.48;;;11.40;99.90;;;;;;4972780;28;20053;-94
2022/10/26 07:53:24;;;;;;;14.48;9.13;;;11.60;99.90;;;;;;4970844;28;20050;-95
2022/10/26 07:56:01;;;;;;;;;;;11.60;99.90;;;;;;4971458;28;20038;-93
2022/10/26 07:58:27;;;;;;;14.43;9.27;;;11.70;99.90;;;;;;4983858;28;19937;-94
2022/10/26 08:00:53;;;;;;;14.18;8.82;;;11.80;99.90;;;;;;4956690;28;20046;-94
2022/10/26 08:03:24;;;;;;;14.25;9.23;;;11.10;99.90;;;;;;4954167;28;20042;-94
2022/10/26 08:05:54;;;;;;;17.17;8.95;;;11.90;99.90;;;;;;4971809;28;20059;-92
2022/10/26 08:08:22;;;;;;;13.25;9.20;;;11.90;99.90;;;;;;4989281;28;20064;-94
2022/10/26 08:10:52;;;;;;;10.75;8.38;;;12.00;99.90;;;;;;4954081;28;20058;-94
2022/10/26 08:13:23;;;;;;;13.32;8.95;;;12.10;99.90;;;;;;4975882;28;20104;-95
2022/10/26 08:15:52;;;;;;;13.05;8.48;;;12.30;99.90;;;;;;4976661;28;20053;-93
2022/10/26 08:18:35;;;;;;;11.80;7.70;;;11.00;99.90;;;;;;4992458;28;20075;-94
2022/10/26 08:21:03;;;;;;;12.70;8.35;;;12.60;99.90;;;;;;4961385;28;20082;-93
2022/10/26 08:23:35;;;;;;;15.50;7.95;;;12.50;99.90;;;;;;4978240;28;20074;-95
2022/10/26 08:26:04;;;;;;;9.32;7.15;;;12.60;99.90;;;;;;4961812;28;20584;-93
2022/10/26 08:28:38;;;;;;;9.25;7.68;;;11.70;99.90;;;;;;4989161;28;20053;-92
2022/10/26 08:31:10;;;;;;;11.43;7.57;;;12.90;99.90;;;;;;4989780;28;20042;-92
2022/10/26 08:33:39;;;;;;;11.23;7.53;;;12.90;99.90;;;;;;4978067;28;20097;-95
2022/10/26 08:36:05;;;;;;;11.95;7.20;;;13.30;99.90;;;;;;4972373;28;20043;-85
2022/10/26 08:38:32;;;;;;;13.88;6.88;;;13.40;99.90;;;;;;4985752;28;20121;-88
2022/10/26 08:41:05;;;;;;;12.27;6.53;;;13.50;99.90;;;;;;4955600;28;20056;-87
2022/10/26 08:43:46;;;;;;;9.25;6.03;;;13.70;99.90;;;;;;4973097;28;20560;-87
2022/10/26 08:46:14;;;;;;;7.00;5.82;;;13.90;99.90;;;;;;4980312;28;20046;-87
2022/10/26 08:48:46;;;;;;;9.82;6.07;;;13.80;99.90;;;;;;4985451;28;20090;-86
2022/10/26 08:51:34;;;;;;;8.25;5.80;;;13.90;99.90;;;;;;4964893;28;20132;-86
2022/10/26 08:54:09;;;;;;;8.38;5.82;;;13.90;99.90;;;;;;4970825;28;20054;-88
2022/10/26 08:56:41;;;;;;;7.85;6.18;;;13.90;99.90;;;;;;4985371;28;20054;-86
2022/10/26 08:59:31;;;;;;;9.10;5.78;;;13.90;99.90;;;;;;4980422;28;20065;-87
2022/10/26 09:02:01;;;;;;;8.27;6.03;;;13.90;99.90;;;;;;4971555;28;20062;-87
2022/10/26 09:04:30;;;;;;;9.23;6.28;;;13.90;99.90;;;;;;4982204;28;20050;-87
2022/10/26 09:06:56;;;;;;;7.22;5.90;;;13.90;99.90;;;;;;4985444;28;20047;-88
2022/10/26 09:09:48;;;;;;;8.13;5.70;;;14.10;99.90;;;;;;4983104;28;20053;-87
2022/10/26 09:12:26;;;;;;;8.50;5.63;;;14.00;99.90;;;;;;4980539;28;20689;-87
2022/10/26 09:15:32;;;;;;;9.27;5.43;;;14.10;99.90;;;;;;4969136;28;20066;-89
2022/10/26 09:18:21;;;;;;;9.55;5.47;;;13.50;99.90;;;;;;4982293;28;20038;-89
2022/10/26 09:21:05;;;;;;;11.15;5.03;;;14.10;99.90;;;;;;4940970;28;20049;-87
2022/10/26 09:24:00;;;;;;;9.55;5.28;;;14.20;99.90;;;;;;4973270;28;20050;-86
2022/10/26 09:26:32;;;;;;;14.02;5.10;;;14.20;99.90;;;;;;4968945;28;20053;-88
2022/10/26 09:29:10;;;;;;;7.82;5.07;;;14.50;99.90;;;;;;4974660;28;20110;-88
2022/10/26 09:32:25;;;;;;;6.28;4.60;;;14.40;99.90;;;;;;5079099;27;20394;-88
2022/10/26 09:37:36;;;;;;;9.63;4.53;;;14.60;99.90;;;;;;5059149;28;20049;-94
2022/10/26 09:40:49;;;;;;;7.45;4.60;;;15.50;99.90;;;;;;5065629;28;20040;-94
2022/10/26 09:43:24;;;;;;;6.90;4.05;;;14.80;99.90;;;;;;5036845;28;20132;-89
2022/10/26 09:46:05;;;;;;;;;;;;;;;;;;;;;
2022/10/26 09:49:01;;;;;;;5.30;3.40;;;15.20;99.90;;;;;;5058788;28;20075;-92
2022/10/26 09:51:42;;;;;;;;;;;;;;;;;;;;;
2022/10/26 09:54:20;;;;;;;6.53;3.15;;;16.60;99.90;;;;;;5049268;28;20045;-91
2022/10/26 09:57:05;;;;;;;7.80;3.10;;;15.50;99.90;;;;;;5052927;28;20111;-92
2022/10/26 09:59:38;;;;;;;6.22;3.03;;;15.40;99.90;;;;;;5032127;28;20140;-92
2022/10/26 10:02:45;;;;;;;5.80;3.03;;;15.50;99.90;;;;;;5046603;28;20045;-92
2022/10/26 10:05:36;;;;;;;5.97;3.22;;;15.60;99.90;;;;;;5015870;28;20056;-92
2022/10/26 10:08:28;;;;;;;6.13;3.05;;;15.60;99.90;;;;;;5027769;28;20060;-93
2022/10/26 10:11:09;;;;;;;6.35;2.92;;;15.70;99.90;;;;;;5042732;28;20498;-93
2022/10/26 10:13:37;;;;;;;7.05;3.00;;;15.60;99.90;;;;;;5042705;28;20050;-91
2022/10/26 10:16:09;;;;;;;7.47;3.63;;;15.60;99.90;;;;;;5041365;28;20120;-94
2022/10/26 10:18:37;;;;;;;6.38;3.22;;;15.60;99.90;;;;;;5041827;28;20102;-90
2022/10/26 10:21:04;;;;;;;4.93;3.00;;;15.70;99.90;;;;;;5027810;28;20055;-93
2022/10/26 10:23:53;;;;;;;4.25;2.85;;;15.70;99.90;;;;;;5042129;28;20075;-93
2022/10/26 10:26:19;;;;;;;6.72;3.00;;;15.80;99.90;;;;;;5049968;28;20119;-93
2022/10/26 10:28:59;;;;;;;5.07;2.90;;;15.80;99.90;;;;;;5043414;28;20044;-87
2022/10/26 10:31:32;;;;;;;5.03;3.33;;;16.00;99.90;;;;;;5053221;28;20033;-95
2022/10/26 10:33:59;;;;;;;5.90;3.30;;;16.00;99.90;;;;;;5042604;28;20057;-91
2022/10/26 10:36:36;;;;;;;6.93;3.50;;;14.90;99.90;;;;;;5044752;28;20155;-91
2022/10/26 10:39:19;;;;;;;7.32;3.72;;;16.00;99.90;;;;;;5044063;28;20083;-93
2022/10/26 10:41:45;;;;;;;6.18;3.50;;;16.00;99.90;;;;;;5033151;28;20091;-88
2022/10/26 10:44:28;;;;;;;7.35;3.35;;;16.20;99.90;;;;;;5029702;28;20049;-90
2022/10/26 10:47:14;;;;;;;6.80;3.25;;;16.20;99.90;;;;;;5042941;28;20059;-95
2022/10/26 10:49:54;;;;;;;6.95;3.55;;;16.30;99.90;;;;;;5045619;28;20045;-91
2022/10/26 10:52:36;;;;;;;6.43;3.75;;;16.30;99.90;;;;;;5033280;28;20048;-94
2022/10/26 10:55:22;;;;;;;5.63;3.42;;;16.30;99.90;;;;;;5019089;28;20059;-93
2022/10/26 10:58:20;;;;;;;6.38;3.42;;;16.30;99.90;;;;;;5037395;28;20053;-95
2022/10/26 11:00:59;;;;;;;5.85;3.22;;;16.30;99.90;;;;;;5033989;28;20038;-94
2022/10/26 11:03:42;;;;;;;8.57;3.60;;;16.50;99.90;;;;;;5037775;28;20128;-94
2022/10/26 11:06:20;;;;;;;6.28;3.40;;;16.50;99.90;;;;;;5032345;28;20032;-92
2022/10/26 11:09:11;;;;;;;5.70;3.30;;;16.40;99.90;;;;;;5039269;28;20044;-94
2022/10/26 11:11:46;;;;;;;7.25;3.42;;;16.40;99.90;;;;;;5036934;28;20044;-92
2022/10/26 11:14:20;;;;;;;6.68;3.28;;;16.50;99.90;;;;;;5052191;28;20072;-92
2022/10/26 11:16:53;;;;;;;7.10;3.60;;;16.50;99.90;;;;;;5040698;28;20479;-94
2022/10/26 11:19:44;;;;;;;6.72;3.80;;;16.60;99.90;;;;;;5041832;28;20077;-96
2022/10/26 11:22:37;;;;;;;7.68;3.55;;;16.80;99.90;;;;;;5032704;28;20489;-94
2022/10/26 11:25:31;;;;;;;6.55;3.40;;;17.00;99.90;;;;;;5037287;28;20020;-94
2022/10/26 11:28:22;;;;;;;7.63;3.60;;;16.80;99.90;;;;;;5037302;28;20061;-93
2022/10/26 11:31:00;;;;;;;5.50;3.72;;;16.70;99.90;;;;;;5046402;28;20556;-91
2022/10/26 11:33:52;;;;;;;8.63;3.50;;;16.80;99.90;;;;;;5036082;28;20049;-93
2022/10/26 12:13:04;;;;;;;5.50;2.90;;;23.30;99.90;;;;;;4961583;28;20044;-92
2022/10/26 12:15:39;;;;;;;5.15;3.05;;;22.70;99.90;;;;;;4946862;29;20047;-95
2022/10/26 12:18:19;;;;;;;5.28;2.72;;;23.60;99.90;;;;;;4919233;29;20106;-94
2022/10/26 12:21:01;;;;;;;5.90;2.97;;;23.80;99.90;;;;;;4923852;29;20043;-86
2022/10/26 12:23:28;;;;;;;6.22;3.05;;;24.00;99.90;;;;;;4933801;29;20573;-87
2022/10/26 12:26:33;;;;;;;4.80;2.92;;;24.00;99.90;;;;;;4917245;29;20043;-86
2022/10/26 12:29:02;;;;;;;4.85;2.92;;;24.20;99.90;;;;;;4905049;29;20063;-84
2022/10/26 12:31:37;;;;;;;6.20;2.80;;;24.50;99.90;;;;;;4931936;29;20153;-88
2022/10/26 12:34:04;;;;;;;5.33;2.83;;;24.80;99.90;;;;;;4931592;29;20043;-86
2022/10/26 12:36:55;;;;;;;5.28;2.40;;;25.10;99.90;;;;;;4914585;29;20295;-89
2022/10/26 12:39:29;;;;;;;5.78;2.80;;;25.30;99.90;;;;;;4935079;29;20078;-87
2022/10/26 12:41:56;;;;;;;7.30;3.08;;;25.30;99.90;;;;;;4919989;29;20055;-89
2022/10/26 12:44:58;;;;;;;7.82;3.00;;;25.40;99.90;;;;;;4928553;29;20102;-89
2022/10/26 12:47:27;;;;;;;4.80;2.58;;;25.40;99.90;;;;;;4914838;29;20572;-88
2022/10/26 12:50:08;;;;;;;6.63;2.55;;;24.70;99.90;;;;;;4929515;29;20159;-87
2022/10/26 12:53:01;;;;;;;8.63;2.42;;;23.90;99.90;;;;;;4927918;28;20043;-90
2022/10/26 13:02:45;;;;;;;;;;;;;;;;;;;;;
2022/10/26 13:09:14;;;;;;;8.32;2.40;;;20.60;99.90;;;;;;5041735;23;20054;-90
2022/10/26 13:11:54;;;;;;;7.05;2.63;;;20.80;99.90;;;;;;4962333;28;20073;-94
2022/10/26 13:14:24;;;;;;;8.18;2.55;;;22.30;99.90;;;;;;4962998;28;20051;-91
2022/10/26 13:17:45;;;;;;;;;;;;;;;;;;;;;
2022/10/26 13:21:22;;;;;;;8.43;2.30;;;21.60;99.90;;;;;;5570685;23;20077;-92
2022/10/26 13:24:12;;;;;;;8.60;2.47;;;22.80;99.90;;;;;;4980241;28;20049;-92
2022/10/26 13:27:21;;;;;;;8.40;2.40;;;22.50;99.90;;;;;;4973868;28;20057;-94
2022/10/26 13:30:03;;;;;;;4.95;2.30;;;23.30;99.90;;;;;;4970200;28;20058;-92
2022/10/26 13:32:50;;;;;;;5.45;2.30;;;22.80;99.90;;;;;;4976022;28;20046;-95
2022/10/26 13:35:18;;;;;;;7.55;2.17;;;23.30;99.90;;;;;;4974061;28;20070;-93
2022/10/26 13:37:50;;;;;;;11.15;2.33;;;23.40;99.90;;;;;;4963883;28;20057;-93
2022/10/26 13:40:39;;;;;;;5.93;2.50;;;23.50;99.90;;;;;;4994716;28;20073;-90
2022/10/26 13:43:19;;;;;;;5.97;1.95;;;23.20;99.90;;;;;;5018497;28;20113;-92
2022/10/26 13:45:54;;;;;;;5.10;2.13;;;23.00;99.90;;;;;;4971043;28;20472;-94
2022/10/26 13:48:37;;;;;;;5.27;1.80;;;22.90;99.90;;;;;;4970271;28;20054;-95
2022/10/26 13:51:26;;;;;;;7.20;2.53;;;22.50;99.90;;;;;;4996467;28;20037;-94
2022/10/26 13:54:03;;;;;;;7.55;1.85;;;22.40;99.90;;;;;;4982989;28;20050;-94
2022/10/26 13:56:43;;;;;;;5.50;1.67;;;22.20;99.90;;;;;;4993078;28;20418;-92
2022/10/26 13:59:14;;;;;;;5.15;1.75;;;22.00;99.90;;;;;;4987347;28;20483;-93
2022/10/26 14:02:04;;;;;;;8.77;2.10;;;20.90;99.90;;;;;;4989361;28;20054;-94
2022/10/26 14:04:42;;;;;;;7.47;2.35;;;21.50;99.90;;;;;;4995082;23;20045;-91
2022/10/26 14:07:21;;;;;;;5.95;2.10;;;21.10;99.90;;;;;;4975578;28;20085;-90
2022/10/26 14:10:48;;;;;;;7.15;1.88;;;20.80;99.90;;;;;;4989165;28;20043;-91
2022/10/26 14:13:39;;;;;;;6.53;1.88;;;20.60;99.90;;;;;;4992226;28;20030;-92
2022/10/26 14:16:08;;;;;;;8.65;2.40;;;20.20;99.90;;;;;;5146166;23;20018;-90
2022/10/26 14:18:37;;;;;;;7.40;1.80;;;19.90;99.90;;;;;;4953168;28;20055;-90
2022/10/26 14:21:06;;;;;;;7.57;2.17;;;19.80;99.90;;;;;;4959751;28;20051;-93
2022/10/26 14:23:55;;;;;;;7.15;2.10;;;19.30;99.90;;;;;;4946786;28;20134;-93
2022/10/26 14:26:40;;;;;;;7.85;1.80;;;20.10;99.90;;;;;;4953292;28;20054;-94
2022/10/26 14:29:23;;;;;;;5.72;1.80;;;19.50;99.90;;;;;;4947841;28;20031;-92
2022/10/26 14:31:56;;;;;;;10.02;2.20;;;19.50;99.90;;;;;;4962168;28;20042;-94
2022/10/26 14:34:38;;;;;;;;;;;;;;;;;;;;;
2022/10/26 14:37:53;;;;;;;;;;;;;;;;;;;;;
2022/10/26 14:40:34;;;;;;;8.13;2.15;;;19.30;99.90;;;;;;4956378;28;20074;-90
2022/10/26 14:43:04;;;;;;;7.57;2.47;;;19.10;99.90;;;;;;4959815;28;20050;-92